createdAt,value
2022-07-27T00:01:52.042Z,6.60
2022-07-27T00:04:58.195Z,7.40
2022-07-27T00:08:04.415Z,5.70
2022-07-27T00:11:11.750Z,6.40
2022-07-27T00:14:17.906Z,6.00
2022-07-27T00:17:24.391Z,6.10
2022-07-27T00:20:31.385Z,6.70
2022-07-27T00:23:37.595Z,7.40
2022-07-27T00:26:43.970Z,6.50
2022-07-27T00:29:50.191Z,6.20
2022-07-27T00:32:57.280Z,5.70
2022-07-27T00:36:03.554Z,7.80
2022-07-27T00:39:09.999Z,6.60
2022-07-27T00:42:16.415Z,8.10
2022-07-27T00:45:22.754Z,5.90
2022-07-27T00:48:29.386Z,8.10
2022-07-27T00:51:35.906Z,7.30
2022-07-27T00:54:42.143Z,8.80
2022-07-27T00:57:59.111Z,14.20
2022-07-27T01:01:06.106Z,9.30
2022-07-27T01:04:12.350Z,6.10
2022-07-27T01:07:18.794Z,7.20
2022-07-27T01:10:25.118Z,5.00
2022-07-27T01:13:31.641Z,6.90
2022-07-27T01:16:37.903Z,7.50
2022-07-27T01:19:44.427Z,5.90
2022-07-27T01:22:50.932Z,5.90
2022-07-27T01:25:57.141Z,6.30
2022-07-27T01:29:04.155Z,6.70
2022-07-27T01:32:10.685Z,5.00
2022-07-27T01:35:16.819Z,4.90
2022-07-27T01:41:27.563Z,8.30
2022-07-27T01:44:33.758Z,7.10
2022-07-27T01:47:39.909Z,6.90
2022-07-27T01:53:54.158Z,6.70
2022-07-27T02:00:05.483Z,6.70
2022-07-27T02:03:12.831Z,6.20
2022-07-27T02:06:19.119Z,6.10
2022-07-27T02:09:25.995Z,8.20
2022-07-27T02:12:38.517Z,6.30
2022-07-27T02:15:44.816Z,11.50
2022-07-27T02:18:50.972Z,10.90
2022-07-27T02:25:01.849Z,15.30
2022-07-27T02:31:12.907Z,16.50
2022-07-27T02:37:23.898Z,8.30
2022-07-27T02:40:30.137Z,6.80
2022-07-27T02:43:36.384Z,7.90
2022-07-27T02:46:42.496Z,8.10
2022-07-27T02:52:53.243Z,7.80
2022-07-27T02:55:59.707Z,5.10
2022-07-27T02:59:05.903Z,7.10
2022-07-27T03:05:16.480Z,4.90
2022-07-27T03:11:27.222Z,6.80
2022-07-27T03:17:37.990Z,5.70
2022-07-27T03:23:48.701Z,6.30
2022-07-27T03:26:54.882Z,4.90
2022-07-27T03:33:05.782Z,4.00
2022-07-27T03:36:12.210Z,4.80
2022-07-27T03:39:18.822Z,5.60
2022-07-27T03:42:25.254Z,5.20
2022-07-27T03:45:32.709Z,5.90
2022-07-27T03:48:39.076Z,4.00
2022-07-27T03:51:45.741Z,5.40
2022-07-27T03:54:52.297Z,4.60
2022-07-27T03:57:58.731Z,3.90
2022-07-27T04:01:05.129Z,11.10
2022-07-27T04:04:11.442Z,11.60
2022-07-27T04:07:17.803Z,7.70
2022-07-27T04:10:24.252Z,5.40
2022-07-27T04:13:33.957Z,6.40
2022-07-27T04:16:42.426Z,13.60
2022-07-27T04:19:48.645Z,7.20
2022-07-27T04:25:59.567Z,5.00
2022-07-27T04:29:06.001Z,6.40
2022-07-27T04:32:12.211Z,4.40
2022-07-27T04:35:22.588Z,5.20
2022-07-27T04:38:31.987Z,3.90
2022-07-27T04:44:42.644Z,16.80
2022-07-27T04:50:53.363Z,9.70
2022-07-27T04:57:05.194Z,6.80
2022-07-27T05:00:13.897Z,7.20
2022-07-27T05:03:20.066Z,6.50
2022-07-27T05:06:26.571Z,6.60
2022-07-27T05:09:32.716Z,5.80
2022-07-27T05:12:39.296Z,6.50
2022-07-27T05:15:54.703Z,8.20
2022-07-27T05:19:01.923Z,9.50
2022-07-27T05:22:08.154Z,5.30
2022-07-27T05:25:14.962Z,5.40
2022-07-27T05:28:21.178Z,5.30
2022-07-27T05:31:27.419Z,12.10
2022-07-27T05:34:33.842Z,13.70
2022-07-27T05:37:40.138Z,8.90
2022-07-27T05:40:48.196Z,8.90
2022-07-27T05:43:55.578Z,6.90
2022-07-27T05:47:01.767Z,8.60
2022-07-27T05:50:12.968Z,9.20
2022-07-27T05:53:19.202Z,8.80
2022-07-27T05:56:25.358Z,8.90
2022-07-27T05:59:32.846Z,9.20
2022-07-27T06:02:38.876Z,10.60
2022-07-27T06:05:45.009Z,10.80
2022-07-27T06:08:51.264Z,12.60
2022-07-27T06:11:57.356Z,13.20
2022-07-27T06:15:03.826Z,14.50
2022-07-27T06:18:18.396Z,16.10
2022-07-27T06:21:28.180Z,14.60
2022-07-27T06:24:34.404Z,16.30
2022-07-27T06:27:40.669Z,15.30
2022-07-27T06:30:46.921Z,18.00
2022-07-27T06:33:53.941Z,15.30
2022-07-27T06:37:02.169Z,15.40
2022-07-27T06:40:10.051Z,18.40
2022-07-27T06:43:16.205Z,15.40
2022-07-27T06:46:22.401Z,16.30
2022-07-27T06:49:28.713Z,17.00
2022-07-27T06:52:35.322Z,16.40
2022-07-27T06:55:41.893Z,16.60
2022-07-27T06:58:48.650Z,15.00
2022-07-27T07:01:54.879Z,16.50
2022-07-27T07:05:01.097Z,14.90
2022-07-27T07:08:11.843Z,17.30
2022-07-27T07:11:18.207Z,21.20
2022-07-27T07:14:26.977Z,23.80
2022-07-27T07:17:33.196Z,17.00
2022-07-27T07:20:40.124Z,16.80
2022-07-27T07:23:46.259Z,18.10
2022-07-27T07:26:52.455Z,18.30
2022-07-27T07:29:59.248Z,18.50
2022-07-27T07:33:05.574Z,20.80
2022-07-27T07:36:13.928Z,18.30
2022-07-27T07:39:21.021Z,19.40
2022-07-27T07:42:27.331Z,17.10
2022-07-27T07:45:35.404Z,21.40
2022-07-27T07:48:43.531Z,18.20
2022-07-27T07:51:49.795Z,18.20
2022-07-27T07:54:55.992Z,20.50
2022-07-27T07:58:02.095Z,20.10
2022-07-27T08:01:08.319Z,21.40
2022-07-27T08:04:14.472Z,21.40
2022-07-27T08:07:20.655Z,24.80
2022-07-27T08:10:28.412Z,21.00
2022-07-27T08:13:34.567Z,19.10
2022-07-27T08:16:40.900Z,21.80
2022-07-27T08:19:47.142Z,22.50
2022-07-27T08:22:53.258Z,24.60
2022-07-27T08:26:04.102Z,22.30
2022-07-27T08:29:14.235Z,22.40
2022-07-27T08:32:21.442Z,22.10
2022-07-27T08:35:29.194Z,22.80
2022-07-27T08:38:35.412Z,20.40
2022-07-27T08:41:43.111Z,19.40
2022-07-27T08:44:49.659Z,21.20
2022-07-27T08:47:56.916Z,25.60
2022-07-27T08:51:03.131Z,18.70
2022-07-27T08:54:09.888Z,19.70
2022-07-27T08:57:16.228Z,22.50
2022-07-27T09:00:23.625Z,25.30
2022-07-27T09:03:29.956Z,22.40
2022-07-27T09:06:54.114Z,19.40
2022-07-27T09:10:01.123Z,19.70
2022-07-27T09:13:21.425Z,22.70
2022-07-27T09:17:14.873Z,23.10
2022-07-27T09:20:01.887Z,17.70
2022-07-27T09:23:07.974Z,16.90
2022-07-27T09:26:30.629Z,21.00
2022-07-27T09:29:39.373Z,21.50
2022-07-27T09:32:55.442Z,18.60
2022-07-27T09:36:02.167Z,20.90
2022-07-27T09:39:08.966Z,17.90
2022-07-27T09:43:03.818Z,17.80
2022-07-27T09:45:51.237Z,18.80
2022-07-27T09:48:58.492Z,17.80
2022-07-27T09:52:05.889Z,15.60
2022-07-27T09:55:13.015Z,16.60
2022-07-27T09:58:19.228Z,17.50
2022-07-27T10:01:26.522Z,16.70
2022-07-27T10:04:35.716Z,16.90
2022-07-27T10:07:42.171Z,17.70
2022-07-27T10:10:48.351Z,15.80
2022-07-27T10:13:56.510Z,15.50
2022-07-27T10:17:03.767Z,17.90
2022-07-27T10:20:13.501Z,15.90
2022-07-27T10:23:30.439Z,18.80
2022-07-27T10:26:38.899Z,17.30
2022-07-27T10:29:47.508Z,16.80
2022-07-27T10:32:53.671Z,15.00
2022-07-27T10:36:02.563Z,16.40
2022-07-27T10:39:09.747Z,15.30
2022-07-27T10:42:30.045Z,13.30
2022-07-27T10:45:52.625Z,13.20
2022-07-27T10:49:21.857Z,17.00
2022-07-27T10:52:45.125Z,16.40
2022-07-27T10:55:52.454Z,13.60
2022-07-27T10:58:58.651Z,13.60
2022-07-27T11:02:06.029Z,14.10
2022-07-27T11:05:48.431Z,12.80
2022-07-27T11:08:46.946Z,11.50
2022-07-27T11:11:56.022Z,13.40
2022-07-27T11:15:02.331Z,14.60
2022-07-27T11:18:08.651Z,13.40
2022-07-27T11:21:25.831Z,13.90
2022-07-27T11:24:35.228Z,11.50
2022-07-27T11:27:51.576Z,13.90
2022-07-27T11:30:57.871Z,12.20
2022-07-27T11:34:04.183Z,11.70
2022-07-27T11:37:19.395Z,12.90
2022-07-27T11:43:50.222Z,13.10
2022-07-27T11:47:01.568Z,14.70
2022-07-27T11:50:14.474Z,14.90
2022-07-27T11:53:24.265Z,15.70
2022-07-27T11:56:33.615Z,11.60
2022-07-27T11:59:40.639Z,13.20
2022-07-27T12:02:53.120Z,12.80
2022-07-27T12:06:00.766Z,13.50
2022-07-27T12:09:08.167Z,12.90
2022-07-27T12:12:16.694Z,10.10
2022-07-27T12:18:49.808Z,13.30
2022-07-27T12:21:56.431Z,13.30
2022-07-27T12:25:11.296Z,12.50
2022-07-27T12:28:28.073Z,11.90
2022-07-27T12:31:34.388Z,12.10
2022-07-27T12:34:40.598Z,11.00
2022-07-27T12:37:46.823Z,10.70
2022-07-27T12:41:00.862Z,11.80
2022-07-27T12:44:12.674Z,14.00
2022-07-27T12:47:43.191Z,12.00
2022-07-27T12:50:57.959Z,11.60
2022-07-27T12:54:04.225Z,14.90
2022-07-27T12:57:10.476Z,13.50
2022-07-27T13:00:18.656Z,12.60
2022-07-27T13:03:24.864Z,14.40
2022-07-27T13:06:31.374Z,12.00
2022-07-27T13:10:03.051Z,11.40
2022-07-27T13:13:06.016Z,10.00
2022-07-27T13:16:12.276Z,12.10
2022-07-27T13:19:18.532Z,10.50
2022-07-27T13:22:24.644Z,10.90
2022-07-27T13:25:30.831Z,10.40
2022-07-27T13:28:36.912Z,9.30
2022-07-27T13:31:49.224Z,12.00
2022-07-27T13:34:58.948Z,9.40
2022-07-27T13:38:05.206Z,13.60
2022-07-27T13:41:11.451Z,10.90
2022-07-27T13:44:41.806Z,9.60
2022-07-27T13:47:44.429Z,8.80
2022-07-27T13:50:50.704Z,12.50
2022-07-27T13:53:56.897Z,10.40
2022-07-27T13:57:02.946Z,9.20
2022-07-27T14:00:11.403Z,10.70
2022-07-27T14:03:17.515Z,10.40
2022-07-27T14:06:25.758Z,12.10
2022-07-27T14:09:46.271Z,9.10
2022-07-27T14:12:58.344Z,8.40
2022-07-27T14:16:06.914Z,10.30
2022-07-27T14:19:13.778Z,9.70
2022-07-27T14:22:20.256Z,9.60
2022-07-27T14:25:26.442Z,8.00
2022-07-27T14:28:32.559Z,10.00
2022-07-27T14:31:38.878Z,9.20
2022-07-27T14:34:45.073Z,9.90
2022-07-27T14:37:51.274Z,9.50
2022-07-27T14:40:57.777Z,12.40
2022-07-27T14:44:04.754Z,13.00
2022-07-27T14:47:11.118Z,11.50
2022-07-27T14:50:17.389Z,9.80
2022-07-27T14:53:23.541Z,10.40
2022-07-27T14:56:29.755Z,11.50
2022-07-27T14:59:36.253Z,12.50
2022-07-27T15:02:42.746Z,11.80
2022-07-27T15:05:49.675Z,11.30
2022-07-27T15:08:56.970Z,10.80
2022-07-27T15:12:03.151Z,10.50
2022-07-27T15:15:11.454Z,9.40
2022-07-27T15:18:19.481Z,9.50
2022-07-27T15:21:25.862Z,9.20
2022-07-27T15:24:36.444Z,8.70
2022-07-27T15:27:44.546Z,8.70
2022-07-27T15:30:50.594Z,9.80
2022-07-27T15:33:56.775Z,9.70
2022-07-27T15:37:03.763Z,9.90
2022-07-27T15:40:29.658Z,12.50
2022-07-27T15:43:35.894Z,10.20
2022-07-27T15:46:43.137Z,10.70
2022-07-27T15:49:49.483Z,8.90
2022-07-27T15:52:55.626Z,9.10
2022-07-27T15:56:01.802Z,11.10
2022-07-27T15:59:07.886Z,12.00
2022-07-27T16:02:14.542Z,10.60
2022-07-27T16:05:20.706Z,9.80
2022-07-27T16:08:29.955Z,10.20
2022-07-27T16:11:36.231Z,12.10
2022-07-27T16:14:42.462Z,10.30
2022-07-27T16:17:48.631Z,9.70
2022-07-27T16:20:54.870Z,11.40
2022-07-27T16:24:01.475Z,10.90
2022-07-27T16:27:08.059Z,10.70
2022-07-27T16:30:20.597Z,11.70
2022-07-27T16:33:27.382Z,9.60
2022-07-27T16:36:38.607Z,13.20
2022-07-27T16:39:45.858Z,10.80
2022-07-27T16:42:52.295Z,11.20
2022-07-27T16:46:02.990Z,11.10
2022-07-27T16:49:09.341Z,11.60
2022-07-27T16:52:15.610Z,10.00
2022-07-27T16:55:22.632Z,10.30
2022-07-27T16:58:34.103Z,11.40
2022-07-27T17:01:40.502Z,11.60
2022-07-27T17:04:47.030Z,12.40
2022-07-27T17:07:54.339Z,10.00
2022-07-27T17:11:02.386Z,10.60
2022-07-27T17:14:08.909Z,10.80
2022-07-27T17:17:16.493Z,11.80
2022-07-27T17:20:34.896Z,15.10
2022-07-27T17:23:42.031Z,23.30
2022-07-27T17:26:48.190Z,20.80
2022-07-27T17:29:54.293Z,15.80
2022-07-27T17:33:00.455Z,14.90
2022-07-27T17:36:12.278Z,14.80
2022-07-27T17:39:21.982Z,11.60
2022-07-27T17:42:28.186Z,12.80
2022-07-27T17:45:34.279Z,13.20
2022-07-27T17:48:41.395Z,12.10
2022-07-27T17:51:47.621Z,17.20
2022-07-27T17:54:53.813Z,15.60
2022-07-27T17:57:59.890Z,13.30
2022-07-27T18:01:06.519Z,16.30
2022-07-27T18:04:13.062Z,12.30
2022-07-27T18:07:19.465Z,12.60
2022-07-27T18:10:25.968Z,13.10
2022-07-27T18:13:38.791Z,13.00
2022-07-27T18:16:45.938Z,10.60
2022-07-27T18:19:52.160Z,11.40
2022-07-27T18:22:58.988Z,11.90
2022-07-27T18:26:05.499Z,12.80
2022-07-27T18:29:12.005Z,12.40
2022-07-27T18:32:18.355Z,12.00
2022-07-27T18:35:24.467Z,11.10
2022-07-27T18:38:30.684Z,11.90
2022-07-27T18:41:38.511Z,10.80
2022-07-27T18:44:44.686Z,12.80
2022-07-27T18:47:50.857Z,13.50
2022-07-27T18:50:57.022Z,13.20
2022-07-27T18:54:03.990Z,12.50
2022-07-27T18:57:10.286Z,12.40
2022-07-27T19:00:17.731Z,15.20
2022-07-27T19:03:24.824Z,14.10
2022-07-27T19:06:34.186Z,12.40
2022-07-27T19:09:41.931Z,13.30
2022-07-27T19:12:48.738Z,16.00
2022-07-27T19:15:54.962Z,16.40
2022-07-27T19:19:01.729Z,14.90
2022-07-27T19:22:08.406Z,15.10
2022-07-27T19:25:16.067Z,13.90
2022-07-27T19:28:23.004Z,12.70
2022-07-27T19:31:29.812Z,14.00
2022-07-27T19:34:36.876Z,15.70
2022-07-27T19:37:43.079Z,14.60
2022-07-27T19:41:00.204Z,14.70
2022-07-27T19:44:06.880Z,15.30
2022-07-27T19:47:13.351Z,14.60
2022-07-27T19:50:19.635Z,16.00
2022-07-27T19:53:25.825Z,15.90
2022-07-27T19:56:37.092Z,16.50
2022-07-27T19:59:54.943Z,15.50
2022-07-27T20:03:03.339Z,14.90
2022-07-27T20:06:11.306Z,15.50
2022-07-27T20:09:17.766Z,14.10
2022-07-27T20:12:23.923Z,14.20
2022-07-27T20:15:30.518Z,13.70
2022-07-27T20:18:37.703Z,14.90
2022-07-27T20:21:43.811Z,16.50
2022-07-27T20:24:50.015Z,13.90
2022-07-27T20:27:56.193Z,13.90
2022-07-27T20:31:02.369Z,16.50
2022-07-27T20:34:08.711Z,18.10
2022-07-27T20:37:14.903Z,16.20
2022-07-27T20:40:21.342Z,17.30
2022-07-27T20:43:28.210Z,18.20
2022-07-27T20:46:34.723Z,19.10
2022-07-27T20:49:41.058Z,16.30
2022-07-27T20:52:48.137Z,14.70
2022-07-27T20:55:54.463Z,15.10
2022-07-27T20:59:00.624Z,16.10
2022-07-27T21:02:07.781Z,13.50
2022-07-27T21:05:14.473Z,16.50
2022-07-27T21:08:20.594Z,16.60
2022-07-27T21:11:27.243Z,16.50
2022-07-27T21:14:33.394Z,16.10
2022-07-27T21:17:39.536Z,15.70
2022-07-27T21:20:45.701Z,14.90
2022-07-27T21:24:09.623Z,14.10
2022-07-27T21:27:15.963Z,15.10
2022-07-27T21:30:27.376Z,16.00
2022-07-27T21:33:39.172Z,16.80
2022-07-27T21:36:47.022Z,15.20
2022-07-27T21:39:53.235Z,13.10
2022-07-27T21:42:59.475Z,15.40
2022-07-27T21:46:05.710Z,15.70
2022-07-27T21:49:13.497Z,14.50
2022-07-27T21:52:19.751Z,14.90
2022-07-27T21:55:26.355Z,15.90
2022-07-27T21:58:32.583Z,13.80
2022-07-27T22:01:40.150Z,12.50
2022-07-27T22:04:46.606Z,14.30
2022-07-27T22:07:53.519Z,13.00
2022-07-27T22:11:00.021Z,13.10
2022-07-27T22:14:06.326Z,14.70
2022-07-27T22:17:12.593Z,12.80
2022-07-27T22:20:18.946Z,13.20
2022-07-27T22:23:25.388Z,14.40
2022-07-27T22:26:31.651Z,14.60
2022-07-27T22:29:38.027Z,14.40
2022-07-27T22:32:44.397Z,15.30
2022-07-27T22:35:50.726Z,13.00
2022-07-27T22:38:57.105Z,13.30
2022-07-27T22:42:03.764Z,13.40
2022-07-27T22:45:11.814Z,14.80
2022-07-27T22:48:18.114Z,12.50
2022-07-27T22:51:24.436Z,13.50
2022-07-27T22:54:33.466Z,13.40
2022-07-27T22:57:39.545Z,13.00
2022-07-27T23:00:45.877Z,13.00
2022-07-27T23:03:52.554Z,12.70
2022-07-27T23:06:59.203Z,12.70
2022-07-27T23:10:05.915Z,12.10
2022-07-27T23:13:12.839Z,14.10
2022-07-27T23:16:19.610Z,11.70
2022-07-27T23:19:26.000Z,12.80
2022-07-27T23:22:32.381Z,12.70
2022-07-27T23:25:40.596Z,12.30
2022-07-27T23:28:46.874Z,14.70
2022-07-27T23:31:53.498Z,11.70
2022-07-27T23:34:59.908Z,11.90
2022-07-27T23:38:06.717Z,12.10
2022-07-27T23:41:12.977Z,11.90
2022-07-27T23:44:19.167Z,14.10
2022-07-27T23:47:25.520Z,13.00
2022-07-27T23:50:32.303Z,12.60
2022-07-27T23:53:38.589Z,12.50
2022-07-27T23:56:44.824Z,10.70
2022-07-27T23:59:51.113Z,10.80
